createdAt,value
2017-01-20T00:00:26.180Z,1027.87
2017-01-20T00:01:26.155Z,1027.9
2017-01-20T00:02:26.130Z,1027.9
2017-01-20T00:03:26.106Z,1027.9
2017-01-20T00:04:26.079Z,1027.87
2017-01-20T00:05:26.052Z,1027.89
2017-01-20T00:06:26.025Z,1027.85
2017-01-20T00:07:26.001Z,1027.85
2017-01-20T00:08:25.974Z,1027.83
2017-01-20T00:09:25.949Z,1027.78
2017-01-20T00:10:25.924Z,1027.81
2017-01-20T00:11:25.898Z,1027.79
2017-01-20T00:12:25.875Z,1027.8
2017-01-20T00:13:25.848Z,1027.76
2017-01-20T00:14:25.818Z,1027.74
2017-01-20T00:15:25.799Z,1027.72
2017-01-20T00:16:25.769Z,1027.72
2017-01-20T00:17:25.747Z,1027.69
2017-01-20T00:18:25.742Z,1027.68
2017-01-20T00:19:25.692Z,1027.73
2017-01-20T00:20:25.670Z,1027.72
2017-01-20T00:21:25.639Z,1027.72
2017-01-20T00:22:25.614Z,1027.66
2017-01-20T00:23:25.588Z,1027.6
2017-01-20T00:24:25.569Z,1027.62
2017-01-20T00:25:25.547Z,1027.56
2017-01-20T00:26:25.516Z,1027.6
2017-01-20T00:27:25.487Z,1027.62
2017-01-20T00:28:25.461Z,1027.61
2017-01-20T00:29:25.433Z,1027.59
2017-01-20T00:30:25.408Z,1027.56
2017-01-20T00:31:25.386Z,1027.6
2017-01-20T00:32:25.359Z,1027.63
2017-01-20T00:33:25.329Z,1027.61
2017-01-20T00:34:25.307Z,1027.58
2017-01-20T00:35:25.280Z,1027.57
2017-01-20T00:36:25.254Z,1027.59
2017-01-20T00:37:25.230Z,1027.59
2017-01-20T00:38:25.214Z,1027.59
2017-01-20T00:39:25.176Z,1027.59
2017-01-20T00:40:25.162Z,1027.6
2017-01-20T00:41:25.125Z,1027.67
2017-01-20T00:42:25.101Z,1027.62
2017-01-20T00:43:25.075Z,1027.57
2017-01-20T00:44:25.047Z,1027.54
2017-01-20T00:45:25.023Z,1027.55
2017-01-20T00:46:25.004Z,1027.55
2017-01-20T00:47:24.976Z,1027.52
2017-01-20T00:48:24.950Z,1027.49
2017-01-20T00:49:24.921Z,1027.48
2017-01-20T00:50:24.894Z,1027.42
2017-01-20T00:51:24.870Z,1027.42
2017-01-20T00:52:24.841Z,1027.42
2017-01-20T00:53:24.818Z,1027.4
2017-01-20T00:54:24.789Z,1027.36
2017-01-20T00:55:24.766Z,1027.35
2017-01-20T00:56:24.741Z,1027.34
2017-01-20T00:57:24.718Z,1027.3
2017-01-20T00:58:24.737Z,1027.34
2017-01-20T00:59:24.663Z,1027.33
2017-01-20T01:00:24.636Z,1027.35
2017-01-20T01:01:24.611Z,1027.33
2017-01-20T01:02:24.588Z,1027.3
2017-01-20T01:03:24.559Z,1027.34
2017-01-20T01:04:24.533Z,1027.33
2017-01-20T01:05:24.506Z,1027.29
2017-01-20T01:06:24.483Z,1027.26
2017-01-20T01:07:24.455Z,1027.31
2017-01-20T01:08:24.428Z,1027.29
2017-01-20T01:09:24.404Z,1027.27
2017-01-20T01:10:24.377Z,1027.23
2017-01-20T01:11:24.354Z,1027.24
2017-01-20T01:12:24.324Z,1027.28
2017-01-20T01:13:24.298Z,1027.21
2017-01-20T01:14:24.277Z,1027.23
2017-01-20T01:15:24.250Z,1027.22
2017-01-20T01:16:24.221Z,1027.18
2017-01-20T01:17:24.195Z,1027.19
2017-01-20T01:18:24.172Z,1027.19
2017-01-20T01:19:24.143Z,1027.18
2017-01-20T01:20:24.115Z,1027.2
2017-01-20T01:21:24.143Z,1027.2
2017-01-20T01:22:24.068Z,1027.21
2017-01-20T01:23:24.038Z,1027.23
2017-01-20T01:24:24.011Z,1027.2
2017-01-20T01:25:24.036Z,1027.26
2017-01-20T01:26:23.970Z,1027.22
2017-01-20T01:27:23.933Z,1027.19
2017-01-20T01:28:23.907Z,1027.26
2017-01-20T01:29:23.883Z,1027.28
2017-01-20T01:30:23.856Z,1027.24
2017-01-20T01:31:23.833Z,1027.32
2017-01-20T01:32:23.810Z,1027.3
2017-01-20T01:33:23.780Z,1027.29
2017-01-20T01:34:23.750Z,1027.32
2017-01-20T01:35:23.729Z,1027.27
2017-01-20T01:36:23.704Z,1027.28
2017-01-20T01:37:23.675Z,1027.25
2017-01-20T01:38:23.649Z,1027.29
2017-01-20T01:39:23.628Z,1027.32
2017-01-20T01:40:23.596Z,1027.38
2017-01-20T01:41:23.569Z,1027.36
2017-01-20T01:42:23.544Z,1027.34
2017-01-20T01:43:23.526Z,1027.36
2017-01-20T01:44:23.494Z,1027.35
2017-01-20T01:45:23.468Z,1027.37
2017-01-20T01:46:23.439Z,1027.34
2017-01-20T01:47:23.412Z,1027.38
2017-01-20T01:48:23.590Z,1027.41
2017-01-20T01:49:23.360Z,1027.42
2017-01-20T01:50:23.335Z,1027.31
2017-01-20T01:51:23.311Z,1027.37
2017-01-20T01:52:23.286Z,1027.37
2017-01-20T01:53:23.257Z,1027.41
2017-01-20T01:54:23.231Z,1027.31
2017-01-20T01:55:23.205Z,1027.34
2017-01-20T01:56:23.178Z,1027.32
2017-01-20T01:57:23.155Z,1027.32
2017-01-20T01:58:23.126Z,1027.32
2017-01-20T01:59:23.103Z,1027.37
2017-01-20T02:00:23.081Z,1027.32
2017-01-20T02:01:23.048Z,1027.29
2017-01-20T02:02:23.028Z,1027.34
2017-01-20T02:03:22.998Z,1027.27
2017-01-20T02:04:22.970Z,1027.32
2017-01-20T02:05:22.947Z,1027.32
2017-01-20T02:06:22.924Z,1027.3
2017-01-20T02:07:22.892Z,1027.29
2017-01-20T02:08:22.879Z,1027.29
2017-01-20T02:09:22.839Z,1027.26
2017-01-20T02:10:22.814Z,1027.34
2017-01-20T02:11:22.786Z,1027.25
2017-01-20T02:12:22.769Z,1027.23
2017-01-20T02:13:22.740Z,1027.26
2017-01-20T02:14:22.712Z,1027.23
2017-01-20T02:15:22.685Z,1027.25
2017-01-20T02:16:22.663Z,1027.26
2017-01-20T02:17:22.644Z,1027.23
2017-01-20T02:18:22.602Z,1027.23
2017-01-20T02:19:22.578Z,1027.24
2017-01-20T02:20:22.552Z,1027.26
2017-01-20T02:21:22.526Z,1027.25
2017-01-20T02:22:22.501Z,1027.26
2017-01-20T02:23:22.473Z,1027.24
2017-01-20T02:24:22.447Z,1027.26
2017-01-20T02:25:22.427Z,1027.25
2017-01-20T02:26:22.396Z,1027.28
2017-01-20T02:27:22.372Z,1027.24
2017-01-20T02:28:22.343Z,1027.28
2017-01-20T02:29:22.318Z,1027.28
2017-01-20T02:30:22.294Z,1027.3
2017-01-20T02:31:22.265Z,1027.29
2017-01-20T02:32:22.238Z,1027.3
2017-01-20T02:33:22.218Z,1027.27
2017-01-20T02:34:22.197Z,1027.25
2017-01-20T02:35:22.160Z,1027.25
2017-01-20T02:36:22.134Z,1027.2
2017-01-20T02:37:22.437Z,1027.19
2017-01-20T02:38:22.085Z,1027.17
2017-01-20T02:39:22.055Z,1027.16
2017-01-20T02:40:22.028Z,1027.18
2017-01-20T02:41:22.003Z,1027.19
2017-01-20T02:42:21.975Z,1027.17
2017-01-20T02:43:21.954Z,1027.2
2017-01-20T02:44:21.921Z,1027.24
2017-01-20T02:45:21.897Z,1027.19
2017-01-20T02:46:21.872Z,1027.21
2017-01-20T02:47:21.844Z,1027.17
2017-01-20T02:48:21.817Z,1027.16
2017-01-20T02:49:21.789Z,1027.12
2017-01-20T02:50:21.765Z,1027.16
2017-01-20T02:51:21.736Z,1027.16
2017-01-20T02:52:21.710Z,1027.14
2017-01-20T02:53:21.684Z,1027.17
2017-01-20T02:54:21.661Z,1027.16
2017-01-20T02:55:21.634Z,1027.18
2017-01-20T02:56:21.605Z,1027.16
2017-01-20T02:57:21.580Z,1027.17
2017-01-20T02:58:21.553Z,1027.18
2017-01-20T02:59:21.531Z,1027.13
2017-01-20T03:00:21.504Z,1027.07
2017-01-20T03:01:21.477Z,1027.07
2017-01-20T03:02:21.448Z,1027.12
2017-01-20T03:03:21.421Z,1027.12
2017-01-20T03:04:21.395Z,1027.1
2017-01-20T03:05:21.368Z,1027.09
2017-01-20T03:06:21.342Z,1027.09
2017-01-20T03:07:21.316Z,1027.09
2017-01-20T03:08:21.294Z,1027.07
2017-01-20T03:09:21.263Z,1027.08
2017-01-20T03:10:21.237Z,1027.07
2017-01-20T03:11:21.211Z,1027.09
2017-01-20T03:12:21.185Z,1027.1
2017-01-20T03:13:21.157Z,1027.13
2017-01-20T03:14:21.133Z,1027.12
2017-01-20T03:15:21.106Z,1027.14
2017-01-20T03:16:21.078Z,1027.09
2017-01-20T03:17:21.051Z,1027.07
2017-01-20T03:18:21.029Z,1027.1
2017-01-20T03:19:21.000Z,1027.08
2017-01-20T03:20:20.973Z,1027.09
2017-01-20T03:21:20.970Z,1027.07
2017-01-20T03:22:20.921Z,1027.06
2017-01-20T03:23:20.894Z,1027.11
2017-01-20T03:24:20.868Z,1027.04
2017-01-20T03:25:20.843Z,1026.97
2017-01-20T03:26:20.866Z,1027
2017-01-20T03:27:20.791Z,1026.95
2017-01-20T03:28:20.764Z,1027.02
2017-01-20T03:29:20.737Z,1027
2017-01-20T03:30:20.712Z,1026.95
2017-01-20T03:31:20.686Z,1026.95
2017-01-20T03:32:20.658Z,1027
2017-01-20T03:33:20.632Z,1027
2017-01-20T03:34:20.610Z,1027.01
2017-01-20T03:35:20.583Z,1027
2017-01-20T03:36:20.554Z,1027.03
2017-01-20T03:37:20.527Z,1027.05
2017-01-20T03:38:20.504Z,1027.04
2017-01-20T03:39:20.474Z,1027.04
2017-01-20T03:40:20.450Z,1027.02
2017-01-20T03:41:20.473Z,1027.04
2017-01-20T03:42:20.397Z,1027.04
2017-01-20T03:43:20.372Z,1027.07
2017-01-20T03:44:20.345Z,1027.08
2017-01-20T03:45:20.325Z,1027.05
2017-01-20T03:46:20.292Z,1027.01
2017-01-20T03:47:20.267Z,1027.07
2017-01-20T03:48:20.243Z,1027.05
2017-01-20T03:49:20.213Z,1027.09
2017-01-20T03:50:20.193Z,1027.1
2017-01-20T03:51:20.164Z,1027.04
2017-01-20T03:52:20.137Z,1027.05
2017-01-20T03:53:20.108Z,1027.14
2017-01-20T03:54:20.083Z,1027.13
2017-01-20T03:55:20.057Z,1027.12
2017-01-20T03:56:20.031Z,1027.16
2017-01-20T03:57:20.004Z,1027.13
2017-01-20T03:58:19.978Z,1027.11
2017-01-20T03:59:19.952Z,1027.12
2017-01-20T04:00:19.956Z,1027.15
2017-01-20T04:01:19.901Z,1027.13
2017-01-20T04:02:19.875Z,1027.12
2017-01-20T04:03:19.850Z,1027.09
2017-01-20T04:04:19.826Z,1027.09
2017-01-20T04:05:19.797Z,1027.08
2017-01-20T04:06:19.769Z,1027.05
2017-01-20T04:07:19.745Z,1027.1
2017-01-20T04:08:19.717Z,1027.06
2017-01-20T04:09:19.689Z,1027.09
2017-01-20T04:10:19.663Z,1027.08
2017-01-20T04:11:19.638Z,1027.1
2017-01-20T04:12:19.612Z,1027.09
2017-01-20T04:13:19.592Z,1027.02
2017-01-20T04:14:19.560Z,1027.03
2017-01-20T04:15:19.533Z,1026.99
2017-01-20T04:16:19.507Z,1027.08
2017-01-20T04:17:19.480Z,1027.02
2017-01-20T04:18:19.454Z,1027.05
2017-01-20T04:19:19.428Z,1027.07
2017-01-20T04:20:19.401Z,1027.02
2017-01-20T04:21:19.373Z,1027.04
2017-01-20T04:22:19.347Z,1027.05
2017-01-20T04:23:19.323Z,1027.04
2017-01-20T04:24:19.303Z,1027.01
2017-01-20T04:25:19.270Z,1027.01
2017-01-20T04:26:19.241Z,1027.03
2017-01-20T04:27:19.215Z,1027.04
2017-01-20T04:28:19.189Z,1027
2017-01-20T04:29:19.163Z,1027.03
2017-01-20T04:30:19.134Z,1027
2017-01-20T04:31:19.110Z,1027
2017-01-20T04:32:19.084Z,1026.95
2017-01-20T04:33:19.055Z,1026.98
2017-01-20T04:34:19.029Z,1026.97
2017-01-20T04:35:19.002Z,1026.97
2017-01-20T04:36:18.976Z,1027.01
2017-01-20T04:37:18.950Z,1027.01
2017-01-20T04:38:18.923Z,1026.99
2017-01-20T04:39:18.896Z,1027.01
2017-01-20T04:40:18.870Z,1027.05
2017-01-20T04:41:18.844Z,1027.01
2017-01-20T04:42:18.868Z,1027.04
2017-01-20T04:43:18.790Z,1027.02
2017-01-20T04:44:18.764Z,1026.99
2017-01-20T04:45:18.737Z,1027.06
2017-01-20T04:46:18.712Z,1027
2017-01-20T04:47:18.686Z,1027.01
2017-01-20T04:48:18.659Z,1027
2017-01-20T04:49:18.632Z,1026.98
2017-01-20T04:50:18.605Z,1026.98
2017-01-20T04:51:18.580Z,1026.99
2017-01-20T04:52:18.553Z,1026.97
2017-01-20T04:53:18.526Z,1026.98
2017-01-20T04:54:18.499Z,1026.96
2017-01-20T04:55:18.474Z,1026.99
2017-01-20T04:56:18.447Z,1026.97
2017-01-20T04:57:18.420Z,1026.94
2017-01-20T04:58:18.394Z,1027.02
2017-01-20T04:59:18.366Z,1026.96
2017-01-20T05:00:18.340Z,1026.92
2017-01-20T05:01:18.313Z,1026.94
2017-01-20T05:02:18.286Z,1026.93
2017-01-20T05:03:18.260Z,1026.9
2017-01-20T05:04:18.242Z,1026.91
2017-01-20T05:05:18.210Z,1026.93
2017-01-20T05:06:18.179Z,1026.88
2017-01-20T05:07:18.154Z,1026.93
2017-01-20T05:08:18.127Z,1026.9
2017-01-20T05:09:18.105Z,1026.86
2017-01-20T05:10:18.074Z,1026.87
2017-01-20T05:11:18.048Z,1026.88
2017-01-20T05:12:18.023Z,1026.9
2017-01-20T05:13:17.994Z,1026.9
2017-01-20T05:14:17.968Z,1026.89
2017-01-20T05:15:17.942Z,1026.91
2017-01-20T05:16:17.915Z,1026.89
2017-01-20T05:17:17.887Z,1026.88
2017-01-20T05:18:17.863Z,1026.9
2017-01-20T05:19:17.837Z,1026.89
2017-01-20T05:20:17.810Z,1026.9
2017-01-20T05:21:17.783Z,1026.92
2017-01-20T05:22:17.765Z,1026.92
2017-01-20T05:23:17.736Z,1026.94
2017-01-20T05:24:17.705Z,1026.94
2017-01-20T05:25:17.678Z,1026.91
2017-01-20T05:26:17.648Z,1026.86
2017-01-20T05:27:17.626Z,1026.91
2017-01-20T05:28:17.595Z,1026.93
2017-01-20T05:29:17.569Z,1026.94
2017-01-20T05:30:17.547Z,1026.91
2017-01-20T05:31:17.516Z,1027.02
2017-01-20T05:32:17.489Z,1026.94
2017-01-20T05:33:17.463Z,1026.93
2017-01-20T05:34:17.436Z,1026.93
2017-01-20T05:35:17.411Z,1026.94
2017-01-20T05:36:17.386Z,1026.97
2017-01-20T05:37:17.359Z,1026.92
2017-01-20T05:38:17.331Z,1026.96
2017-01-20T05:39:17.305Z,1026.98
2017-01-20T05:40:17.280Z,1026.98
2017-01-20T05:41:17.252Z,1026.99
2017-01-20T05:42:17.229Z,1026.98
2017-01-20T05:43:17.198Z,1026.98
2017-01-20T05:44:17.172Z,1026.99
2017-01-20T05:45:17.146Z,1026.95
2017-01-20T05:46:17.118Z,1027
2017-01-20T05:47:17.092Z,1027
2017-01-20T05:48:17.069Z,1027.01
2017-01-20T05:49:17.243Z,1026.93
2017-01-20T05:50:17.012Z,1026.92
2017-01-20T05:51:16.988Z,1026.91
2017-01-20T05:52:16.964Z,1026.96
2017-01-20T05:53:16.932Z,1026.94
2017-01-20T05:54:16.906Z,1026.95
2017-01-20T05:55:16.880Z,1027.01
2017-01-20T05:56:16.853Z,1026.92
2017-01-20T05:57:16.829Z,1026.88
2017-01-20T05:58:16.799Z,1026.88
2017-01-20T05:59:16.774Z,1026.91
2017-01-20T06:00:16.767Z,1026.91
2017-01-20T06:01:16.726Z,1026.95
2017-01-20T06:02:16.695Z,1026.96
2017-01-20T06:03:16.669Z,1026.88
2017-01-20T06:04:16.640Z,1026.9
2017-01-20T06:05:16.612Z,1026.89
2017-01-20T06:06:16.586Z,1026.9
2017-01-20T06:07:16.561Z,1026.88
2017-01-20T06:08:16.534Z,1026.89
2017-01-20T06:09:16.505Z,1026.86
2017-01-20T06:10:16.479Z,1026.87
2017-01-20T06:11:16.453Z,1026.91
2017-01-20T06:12:16.429Z,1026.86
2017-01-20T06:13:16.399Z,1026.85
2017-01-20T06:14:16.373Z,1026.88
2017-01-20T06:15:16.347Z,1026.88
2017-01-20T06:16:16.320Z,1026.86
2017-01-20T06:17:16.293Z,1026.86
2017-01-20T06:18:16.266Z,1026.86
2017-01-20T06:19:16.239Z,1026.85
2017-01-20T06:20:16.215Z,1026.87
2017-01-20T06:21:16.186Z,1026.88
2017-01-20T06:22:16.162Z,1026.87
2017-01-20T06:23:16.182Z,1026.89
2017-01-20T06:24:16.106Z,1026.88
2017-01-20T06:25:16.079Z,1026.85
2017-01-20T06:26:16.058Z,1026.83
2017-01-20T06:27:16.031Z,1026.8
2017-01-20T06:28:16.002Z,1026.87
2017-01-20T06:29:15.975Z,1026.82
2017-01-20T06:30:15.946Z,1026.84
2017-01-20T06:31:15.966Z,1026.81
2017-01-20T06:32:15.893Z,1026.88
2017-01-20T06:33:15.866Z,1026.83
2017-01-20T06:34:15.841Z,1026.82
2017-01-20T06:35:15.817Z,1026.83
2017-01-20T06:36:15.789Z,1026.84
2017-01-20T06:37:15.760Z,1026.83
2017-01-20T06:38:15.732Z,1026.81
2017-01-20T06:39:15.707Z,1026.82
2017-01-20T06:40:15.679Z,1026.84
2017-01-20T06:41:15.654Z,1026.84
2017-01-20T06:42:15.628Z,1026.85
2017-01-20T06:43:15.598Z,1026.85
2017-01-20T06:44:15.571Z,1026.8
2017-01-20T06:45:15.545Z,1026.8
2017-01-20T06:46:15.517Z,1026.79
2017-01-20T06:47:15.492Z,1026.75
2017-01-20T06:48:15.475Z,1026.73
2017-01-20T06:49:15.441Z,1026.74
2017-01-20T06:50:15.412Z,1026.79
2017-01-20T06:51:15.385Z,1026.8
2017-01-20T06:52:15.361Z,1026.84
2017-01-20T06:53:15.330Z,1026.76
2017-01-20T06:54:15.304Z,1026.8
2017-01-20T06:55:15.278Z,1026.8
2017-01-20T06:56:15.252Z,1026.77
2017-01-20T06:57:15.226Z,1026.84
2017-01-20T06:58:15.199Z,1026.82
2017-01-20T06:59:15.177Z,1026.82
2017-01-20T07:00:15.146Z,1026.87
2017-01-20T07:01:15.117Z,1026.83
2017-01-20T07:02:15.089Z,1026.82
2017-01-20T07:03:15.063Z,1026.79
2017-01-20T07:04:15.036Z,1026.79
2017-01-20T07:05:15.009Z,1026.8
2017-01-20T07:06:14.982Z,1026.81
2017-01-20T07:07:14.957Z,1026.85
2017-01-20T07:08:14.929Z,1026.88
2017-01-20T07:09:14.902Z,1026.83
2017-01-20T07:10:14.878Z,1026.82
2017-01-20T07:11:14.850Z,1026.78
2017-01-20T07:12:14.824Z,1026.85
2017-01-20T07:13:14.799Z,1026.86
2017-01-20T07:14:14.774Z,1026.84
2017-01-20T07:15:14.743Z,1026.83
2017-01-20T07:16:14.716Z,1026.85
2017-01-20T07:17:14.693Z,1026.88
2017-01-20T07:18:14.661Z,1026.86
2017-01-20T07:19:14.637Z,1026.87
2017-01-20T07:20:14.611Z,1026.83
2017-01-20T07:21:14.587Z,1026.88
2017-01-20T07:22:14.561Z,1026.9
2017-01-20T07:23:14.529Z,1026.91
2017-01-20T07:24:14.502Z,1026.87
2017-01-20T07:25:14.476Z,1026.92
2017-01-20T07:26:14.450Z,1026.86
2017-01-20T07:27:14.422Z,1026.89
2017-01-20T07:28:14.395Z,1026.86
2017-01-20T07:29:14.367Z,1026.84
2017-01-20T07:30:14.343Z,1026.87
2017-01-20T07:31:14.317Z,1026.87
2017-01-20T07:32:14.288Z,1026.84
2017-01-20T07:33:14.260Z,1026.85
2017-01-20T07:34:14.234Z,1026.85
2017-01-20T07:35:14.208Z,1026.85
2017-01-20T07:36:14.182Z,1026.84
2017-01-20T07:37:14.157Z,1026.87
2017-01-20T07:38:14.126Z,1026.87
2017-01-20T07:39:14.101Z,1026.89
2017-01-20T07:40:14.077Z,1026.93
2017-01-20T07:41:14.048Z,1026.92
2017-01-20T07:42:14.021Z,1026.92
2017-01-20T07:43:13.994Z,1026.92
2017-01-20T07:44:13.969Z,1026.96
2017-01-20T07:45:13.941Z,1026.91
2017-01-20T07:46:13.916Z,1026.9
2017-01-20T07:47:13.892Z,1026.94
2017-01-20T07:48:13.862Z,1026.92
2017-01-20T07:49:14.036Z,1026.94
2017-01-20T07:50:13.809Z,1026.91
2017-01-20T07:51:13.783Z,1026.92
2017-01-20T07:52:13.756Z,1026.99
2017-01-20T07:53:13.729Z,1026.93
2017-01-20T07:54:13.703Z,1026.93
2017-01-20T07:55:13.674Z,1026.99
2017-01-20T07:56:13.650Z,1026.97
2017-01-20T07:57:13.622Z,1026.97
2017-01-20T07:58:13.595Z,1026.97
2017-01-20T07:59:13.568Z,1026.96
2017-01-20T08:00:13.543Z,1027.03
2017-01-20T08:01:13.516Z,1027.01
2017-01-20T08:02:13.488Z,1027.02
2017-01-20T08:03:13.476Z,1026.97
2017-01-20T08:04:13.437Z,1026.99
2017-01-20T08:05:13.409Z,1027
2017-01-20T08:06:13.385Z,1026.97
2017-01-20T08:07:13.356Z,1026.95
2017-01-20T08:08:13.330Z,1026.92
2017-01-20T08:09:13.304Z,1026.93
2017-01-20T08:10:13.328Z,1026.9
2017-01-20T08:11:13.251Z,1026.91
2017-01-20T08:12:13.224Z,1026.92
2017-01-20T08:13:13.198Z,1026.95
2017-01-20T08:14:13.172Z,1026.94
2017-01-20T08:15:13.146Z,1026.94
2017-01-20T08:16:13.119Z,1026.99
2017-01-20T08:17:13.100Z,1027
2017-01-20T08:18:13.068Z,1027.01
2017-01-20T08:19:13.051Z,1026.97
2017-01-20T08:20:13.015Z,1027.01
2017-01-20T08:21:12.993Z,1026.98
2017-01-20T08:22:12.963Z,1026.98
2017-01-20T08:23:12.938Z,1026.99
2017-01-20T08:24:12.914Z,1027.01
2017-01-20T08:25:12.886Z,1027.02
2017-01-20T08:26:12.858Z,1026.99
2017-01-20T08:27:12.831Z,1027.05
2017-01-20T08:28:12.806Z,1027.01
2017-01-20T08:29:12.780Z,1027.03
2017-01-20T08:30:12.755Z,1027.01
2017-01-20T08:31:12.729Z,1026.93
2017-01-20T08:32:12.703Z,1026.96
2017-01-20T08:33:12.677Z,1026.97
2017-01-20T08:34:12.658Z,1026.94
2017-01-20T08:35:12.624Z,1026.94
2017-01-20T08:36:12.601Z,1026.93
2017-01-20T08:37:12.574Z,1026.97
2017-01-20T08:38:12.549Z,1026.98
2017-01-20T08:39:12.521Z,1026.99
2017-01-20T08:40:12.498Z,1026.96
2017-01-20T08:41:12.483Z,1026.96
2017-01-20T08:42:12.445Z,1026.92
2017-01-20T08:43:12.419Z,1026.95
2017-01-20T08:44:12.395Z,1026.93
2017-01-20T08:45:12.370Z,1027.01
2017-01-20T08:46:12.345Z,1026.99
2017-01-20T08:47:12.319Z,1026.98
2017-01-20T08:48:12.295Z,1026.96
2017-01-20T08:49:12.268Z,1026.97
2017-01-20T08:50:12.245Z,1027
2017-01-20T08:51:12.221Z,1027.06
2017-01-20T08:52:12.197Z,1027.05
2017-01-20T08:53:12.169Z,1027.06
2017-01-20T08:54:12.144Z,1027.03
2017-01-20T08:55:12.122Z,1027.02
2017-01-20T08:56:12.095Z,1027.06
2017-01-20T08:57:12.070Z,1027.04
2017-01-20T08:58:12.047Z,1027.05
2017-01-20T08:59:12.023Z,1027
2017-01-20T09:00:11.998Z,1027.01
2017-01-20T09:01:11.972Z,1027.03
2017-01-20T09:02:11.950Z,1027.03
2017-01-20T09:03:11.925Z,1027
2017-01-20T09:04:11.899Z,1027.05
2017-01-20T09:05:11.876Z,1027.1
2017-01-20T09:06:11.851Z,1027.08
2017-01-20T09:07:11.828Z,1027.1
2017-01-20T09:08:11.803Z,1027.1
2017-01-20T09:09:11.779Z,1027.05
2017-01-20T09:10:11.755Z,1027.08
2017-01-20T09:11:11.731Z,1027.06
2017-01-20T09:12:11.715Z,1027.08
2017-01-20T09:13:11.685Z,1027.14
2017-01-20T09:14:11.661Z,1027.12
2017-01-20T09:15:11.640Z,1027.1
2017-01-20T09:16:11.621Z,1027.02
2017-01-20T09:17:11.592Z,1027.09
2017-01-20T09:18:11.568Z,1027.06
2017-01-20T09:19:11.542Z,1027.05
2017-01-20T09:20:11.518Z,1027.08
2017-01-20T09:21:11.496Z,1027.08
2017-01-20T09:22:11.475Z,1027.08
2017-01-20T09:23:11.463Z,1027.1
2017-01-20T09:24:11.428Z,1027.1
2017-01-20T09:25:11.405Z,1027.11
2017-01-20T09:26:11.380Z,1027.11
2017-01-20T09:27:11.357Z,1027.09
2017-01-20T09:28:11.335Z,1027.12
2017-01-20T09:29:11.310Z,1027.09
2017-01-20T09:30:11.291Z,1027.13
2017-01-20T09:31:11.267Z,1027.15
2017-01-20T09:32:11.244Z,1027.1
2017-01-20T09:33:11.220Z,1027.12
2017-01-20T09:34:11.199Z,1027.12
2017-01-20T09:35:11.175Z,1027.13
2017-01-20T09:36:11.151Z,1027.13
2017-01-20T09:37:11.128Z,1027.15
2017-01-20T09:38:11.105Z,1027.07
2017-01-20T09:39:11.085Z,1027.12
2017-01-20T09:40:11.061Z,1027.11
2017-01-20T09:41:11.038Z,1027.19
2017-01-20T09:42:11.017Z,1027.23
2017-01-20T09:43:10.993Z,1027.17
2017-01-20T09:44:11.020Z,1027.22
2017-01-20T09:45:10.951Z,1027.22
2017-01-20T09:46:10.925Z,1027.22
2017-01-20T09:47:10.904Z,1027.24
2017-01-20T09:48:10.880Z,1027.25
2017-01-20T09:49:11.075Z,1027.19
2017-01-20T09:50:10.836Z,1027.25
2017-01-20T09:51:10.814Z,1027.29
2017-01-20T09:52:10.791Z,1027.29
2017-01-20T09:53:10.773Z,1027.25
2017-01-20T09:54:10.750Z,1027.27
2017-01-20T09:55:10.722Z,1027.28
2017-01-20T09:56:10.700Z,1027.24
2017-01-20T09:57:10.730Z,1027.16
2017-01-20T09:58:10.656Z,1027.14
2017-01-20T09:59:10.635Z,1027.15
2017-01-20T10:00:10.611Z,1027.19
2017-01-20T10:01:10.588Z,1027.22
2017-01-20T10:02:10.569Z,1027.26
2017-01-20T10:03:10.547Z,1027.22
2017-01-20T10:04:10.522Z,1027.24
2017-01-20T10:05:10.501Z,1027.24
2017-01-20T10:06:10.503Z,1027.26
2017-01-20T10:07:10.458Z,1027.27
2017-01-20T10:08:10.436Z,1027.29
2017-01-20T10:09:10.416Z,1027.22
2017-01-20T10:10:10.397Z,1027.26
2017-01-20T10:11:10.373Z,1027.25
2017-01-20T10:12:10.354Z,1027.33
2017-01-20T10:13:10.336Z,1027.31
2017-01-20T10:14:10.311Z,1027.32
2017-01-20T10:15:10.289Z,1027.32
2017-01-20T10:16:10.268Z,1027.34
2017-01-20T10:17:10.247Z,1027.38
2017-01-20T10:18:10.227Z,1027.3
2017-01-20T10:19:10.222Z,1027.34
2017-01-20T10:20:10.190Z,1027.28
2017-01-20T10:21:10.170Z,1027.33
2017-01-20T10:22:10.151Z,1027.31
2017-01-20T10:23:10.131Z,1027.31
2017-01-20T10:24:10.112Z,1027.36
2017-01-20T10:25:10.097Z,1027.24
2017-01-20T10:26:10.075Z,1027.26
2017-01-20T10:27:10.056Z,1027.27
2017-01-20T10:28:10.038Z,1027.22
2017-01-20T10:29:10.021Z,1027.21
2017-01-20T10:30:10.004Z,1027.22
2017-01-20T10:31:09.985Z,1027.24
2017-01-20T10:32:09.969Z,1027.27
2017-01-20T10:33:09.950Z,1027.22
2017-01-20T10:34:09.933Z,1027.24
2017-01-20T10:35:09.916Z,1027.22
2017-01-20T10:36:09.898Z,1027.22
2017-01-20T10:37:09.893Z,1027.18
2017-01-20T10:38:09.866Z,1027.2
2017-01-20T10:39:09.849Z,1027.24
2017-01-20T10:40:09.831Z,1027.19
2017-01-20T10:41:09.814Z,1027.23
2017-01-20T10:42:09.800Z,1027.18
2017-01-20T10:43:09.781Z,1027.19
2017-01-20T10:44:09.767Z,1027.21
2017-01-20T10:45:09.749Z,1027.22
2017-01-20T10:46:09.731Z,1027.22
2017-01-20T10:47:09.716Z,1027.21
2017-01-20T10:48:09.702Z,1027.24
2017-01-20T10:49:09.683Z,1027.2
2017-01-20T10:50:09.668Z,1027.18
2017-01-20T10:51:09.653Z,1027.2
2017-01-20T10:52:09.635Z,1027.26
2017-01-20T10:53:09.619Z,1027.18
2017-01-20T10:54:10.045Z,1027.17
2017-01-20T10:55:09.593Z,1027.14
2017-01-20T10:56:09.576Z,1027.16
2017-01-20T10:57:09.560Z,1027.14
2017-01-20T10:58:09.545Z,1027.1
2017-01-20T10:59:09.531Z,1027.07
2017-01-20T11:00:09.515Z,1027.11
2017-01-20T11:01:09.500Z,1027.11
2017-01-20T11:02:09.485Z,1027.1
2017-01-20T11:03:09.494Z,1027.09
2017-01-20T11:04:09.456Z,1027.11
2017-01-20T11:05:09.440Z,1027.07
2017-01-20T11:06:09.427Z,1027.04
2017-01-20T11:07:09.413Z,1027.05
2017-01-20T11:08:09.398Z,1026.98
2017-01-20T11:09:09.384Z,1026.97
2017-01-20T11:10:09.372Z,1027
2017-01-20T11:11:09.359Z,1026.98
2017-01-20T11:12:09.343Z,1026.95
2017-01-20T11:13:09.329Z,1026.95
2017-01-20T11:14:09.315Z,1026.96
2017-01-20T11:15:09.302Z,1026.94
2017-01-20T11:16:09.287Z,1026.9
2017-01-20T11:17:09.276Z,1026.91
2017-01-20T11:18:09.262Z,1026.9
2017-01-20T11:19:09.248Z,1026.9
2017-01-20T11:20:09.235Z,1026.89
2017-01-20T11:21:09.228Z,1026.92
2017-01-20T11:22:09.210Z,1026.88
2017-01-20T11:23:09.198Z,1026.9
2017-01-20T11:24:09.186Z,1026.88
2017-01-20T11:25:09.175Z,1026.88
2017-01-20T11:26:09.166Z,1026.87
2017-01-20T11:27:09.147Z,1026.85
2017-01-20T11:28:09.137Z,1026.83
2017-01-20T11:29:09.126Z,1026.83
2017-01-20T11:30:09.110Z,1026.82
2017-01-20T11:31:09.099Z,1026.76
2017-01-20T11:32:09.087Z,1026.77
2017-01-20T11:33:09.074Z,1026.75
2017-01-20T11:34:09.073Z,1026.71
2017-01-20T11:35:09.055Z,1026.74
2017-01-20T11:36:09.039Z,1026.73
2017-01-20T11:37:09.024Z,1026.72
2017-01-20T11:38:09.011Z,1026.66
2017-01-20T11:39:09.001Z,1026.66
2017-01-20T11:40:08.989Z,1026.64
2017-01-20T11:41:08.973Z,1026.65
2017-01-20T11:42:08.961Z,1026.63
2017-01-20T11:43:08.950Z,1026.58
2017-01-20T11:44:08.937Z,1026.56
2017-01-20T11:45:08.933Z,1026.6
2017-01-20T11:46:08.918Z,1026.6
2017-01-20T11:47:08.901Z,1026.58
2017-01-20T11:48:08.889Z,1026.55
2017-01-20T11:49:09.093Z,1026.53
2017-01-20T11:50:08.867Z,1026.54
2017-01-20T11:51:08.852Z,1026.48
2017-01-20T11:52:08.837Z,1026.46
2017-01-20T11:53:08.877Z,1026.45
2017-01-20T11:54:08.811Z,1026.49
2017-01-20T11:55:08.806Z,1026.5
2017-01-20T11:56:08.798Z,1026.46
2017-01-20T11:57:08.772Z,1026.44
2017-01-20T11:58:08.759Z,1026.45
2017-01-20T11:59:08.744Z,1026.43
2017-01-20T12:00:08.732Z,1026.4
2017-01-20T12:01:08.719Z,1026.38
2017-01-20T12:02:08.703Z,1026.38
2017-01-20T12:03:08.687Z,1026.33
2017-01-20T12:04:08.673Z,1026.33
2017-01-20T12:05:08.659Z,1026.32
2017-01-20T12:06:08.646Z,1026.34
2017-01-20T12:07:08.627Z,1026.29
2017-01-20T12:08:08.612Z,1026.33
2017-01-20T12:09:08.597Z,1026.29